sensor_id;sensor_type;location;lat;lon;timestamp;pressure;altitude;pressure_sealevel;temperature;humidity
7180;BME280;3631;42.152;24.756;2023-08-20T00:00:47;84187.97;;;-144.30;63.76
7180;BME280;3631;42.152;24.756;2023-08-20T00:03:25;84162.16;;;-144.30;64.79
7180;BME280;3631;42.152;24.756;2023-08-20T00:06:34;84170.09;;;-144.30;63.24
7180;BME280;3631;42.152;24.756;2023-08-20T00:09:33;84209.84;;;-144.30;62.54
7180;BME280;3631;42.152;24.756;2023-08-20T00:12:23;84180.03;;;-144.30;60.86
7180;BME280;3631;42.152;24.756;2023-08-20T00:15:36;84176.06;;;-144.30;59.95
7180;BME280;3631;42.152;24.756;2023-08-20T00:18:55;84219.78;;;-144.30;59.81
7180;BME280;3631;42.152;24.756;2023-08-20T00:21:55;84724.56;;;-144.30;60.40
7180;BME280;3631;42.152;24.756;2023-08-20T00:25:01;84189.97;;;-144.30;60.95
7180;BME280;3631;42.152;24.756;2023-08-20T00:28:08;84239.66;;;-144.30;61.50
7180;BME280;3631;42.152;24.756;2023-08-20T00:31:35;84215.78;;;-144.30;60.53
7180;BME280;3631;42.152;24.756;2023-08-20T00:34:38;84213.81;;;-144.30;60.47
7180;BME280;3631;42.152;24.756;2023-08-20T00:37:24;84182.00;;;-144.30;60.80
7180;BME280;3631;42.152;24.756;2023-08-20T00:43:35;84189.97;;;-144.30;58.47
7180;BME280;3631;42.152;24.756;2023-08-20T00:46:41;84231.69;;;-144.30;59.20
7180;BME280;3631;42.152;24.756;2023-08-20T00:49:38;84199.91;;;-144.30;59.61
7180;BME280;3631;42.152;24.756;2023-08-20T00:52:40;84209.84;;;-144.30;59.68
7180;BME280;3631;42.152;24.756;2023-08-20T00:55:38;84215.78;;;-144.30;59.61
7180;BME280;3631;42.152;24.756;2023-08-20T00:58:28;84255.53;;;-144.30;59.92
7180;BME280;3631;42.152;24.756;2023-08-20T01:01:17;84223.75;;;-144.30;59.33
7180;BME280;3631;42.152;24.756;2023-08-20T01:07:10;84168.09;;;-144.30;57.85
7180;BME280;3631;42.152;24.756;2023-08-20T01:10:17;84176.06;;;-144.30;58.01
7180;BME280;3631;42.152;24.756;2023-08-20T01:13:25;84283.38;;;-144.30;58.21
7180;BME280;3631;42.152;24.756;2023-08-20T01:16:27;84297.28;;;-144.30;58.59
7180;BME280;3631;42.152;24.756;2023-08-20T01:19:36;84213.81;;;-144.30;58.38
7180;BME280;3631;42.152;24.756;2023-08-20T01:26:10;84255.53;;;-144.30;57.74
7180;BME280;3631;42.152;24.756;2023-08-20T01:29:14;84265.47;;;-144.30;57.93
7180;BME280;3631;42.152;24.756;2023-08-20T01:32:05;84247.59;;;-144.30;57.64
7180;BME280;3631;42.152;24.756;2023-08-20T01:35:04;84247.59;;;-144.30;57.46
7180;BME280;3631;42.152;24.756;2023-08-20T01:37:58;84269.47;;;-144.30;57.71
7180;BME280;3631;42.152;24.756;2023-08-20T01:40:47;84237.66;;;-144.30;57.91
7180;BME280;3631;42.152;24.756;2023-08-20T01:43:43;84269.47;;;-144.30;58.02
7180;BME280;3631;42.152;24.756;2023-08-20T01:46:47;84303.25;;;-144.30;57.91
7180;BME280;3631;42.152;24.756;2023-08-20T01:49:31;84305.22;;;-144.30;58.09
7180;BME280;3631;42.152;24.756;2023-08-20T01:52:34;84285.34;;;-144.30;58.18
7180;BME280;3631;42.152;24.756;2023-08-20T01:55:45;84299.25;;;-144.30;58.29
7180;BME280;3631;42.152;24.756;2023-08-20T02:01:46;84293.31;;;-144.30;58.37
7180;BME280;3631;42.152;24.756;2023-08-20T02:04:26;84271.44;;;-144.30;58.31
7180;BME280;3631;42.152;24.756;2023-08-20T02:07:36;84289.31;;;-144.30;58.15
7180;BME280;3631;42.152;24.756;2023-08-20T02:10:39;84311.19;;;-144.30;58.53
7180;BME280;3631;42.152;24.756;2023-08-20T02:13:47;84287.34;;;-144.30;58.81
7180;BME280;3631;42.152;24.756;2023-08-20T02:23:01;84289.31;;;-144.30;58.15
7180;BME280;3631;42.152;24.756;2023-08-20T02:25:47;84281.38;;;-144.30;57.91
7180;BME280;3631;42.152;24.756;2023-08-20T02:28:48;84295.28;;;-144.30;57.67
7180;BME280;3631;42.152;24.756;2023-08-20T02:31:47;84323.13;;;-144.30;57.62
7180;BME280;3631;42.152;24.756;2023-08-20T02:34:51;84331.06;;;-144.30;57.50
7180;BME280;3631;42.152;24.756;2023-08-20T02:37:50;84307.22;;;-144.30;57.33
7180;BME280;3631;42.152;24.756;2023-08-20T02:41:02;84346.97;;;-144.30;57.74
7180;BME280;3631;42.152;24.756;2023-08-20T02:44:04;84370.81;;;-144.30;57.52
7180;BME280;3631;42.152;24.756;2023-08-20T02:46:57;84335.03;;;-144.30;57.55
7180;BME280;3631;42.152;24.756;2023-08-20T02:50:07;84362.84;;;-144.30;57.59
7180;BME280;3631;42.152;24.756;2023-08-20T02:53:08;84366.84;;;-144.30;57.78
7180;BME280;3631;42.152;24.756;2023-08-20T03:02:22;84311.19;;;-144.30;57.59
7180;BME280;3631;42.152;24.756;2023-08-20T03:05:13;84342.97;;;-144.30;57.62
7180;BME280;3631;42.152;24.756;2023-08-20T03:07:44;84315.16;;;-144.30;57.14
7180;BME280;3631;42.152;24.756;2023-08-20T03:10:12;84315.16;;;-144.30;57.21
7180;BME280;3631;42.152;24.756;2023-08-20T03:12:40;84315.16;;;-144.30;57.41
7180;BME280;3631;42.152;24.756;2023-08-20T03:15:15;84342.97;;;-144.30;57.40
7180;BME280;3631;42.152;24.756;2023-08-20T03:17:52;84303.25;;;-144.30;57.74
7180;BME280;3631;42.152;24.756;2023-08-20T03:20:22;84378.75;;;-144.30;57.89
7180;BME280;3631;42.152;24.756;2023-08-20T03:23:05;84337.03;;;-144.30;58.05
7180;BME280;3631;42.152;24.756;2023-08-20T03:26:06;84362.84;;;-144.30;57.88
7180;BME280;3631;42.152;24.756;2023-08-20T03:29:08;84342.97;;;-144.30;57.92
7180;BME280;3631;42.152;24.756;2023-08-20T03:31:59;84360.88;;;-144.30;58.03
7180;BME280;3631;42.152;24.756;2023-08-20T03:34:40;84317.16;;;-144.30;57.62
7180;BME280;3631;42.152;24.756;2023-08-20T03:37:10;84323.13;;;-144.30;57.46
7180;BME280;3631;42.152;24.756;2023-08-20T03:39:40;84342.97;;;-144.30;57.53
7180;BME280;3631;42.152;24.756;2023-08-20T03:42:21;84358.88;;;-144.30;57.65
7180;BME280;3631;42.152;24.756;2023-08-20T03:45:07;84331.06;;;-144.30;57.38
7180;BME280;3631;42.152;24.756;2023-08-20T03:47:57;84323.13;;;-144.30;57.26
7180;BME280;3631;42.152;24.756;2023-08-20T03:50:29;84358.88;;;-144.30;57.14
7180;BME280;3631;42.152;24.756;2023-08-20T03:53:11;84323.13;;;-144.30;56.85
7180;BME280;3631;42.152;24.756;2023-08-20T03:55:58;84044.91;;;-144.30;56.75
7180;BME280;3631;42.152;24.756;2023-08-20T03:58:33;84311.19;;;-144.30;56.91
7180;BME280;3631;42.152;24.756;2023-08-20T04:01:20;84309.19;;;-144.30;56.93
7180;BME280;3631;42.152;24.756;2023-08-20T04:03:55;84311.19;;;-144.30;57.18
7180;BME280;3631;42.152;24.756;2023-08-20T04:06:38;84331.06;;;-144.30;57.21
7180;BME280;3631;42.152;24.756;2023-08-20T04:09:06;84305.22;;;-144.30;57.57
7180;BME280;3631;42.152;24.756;2023-08-20T04:11:45;84321.13;;;-144.30;58.02
7180;BME280;3631;42.152;24.756;2023-08-20T04:14:17;84350.94;;;-144.30;57.85
7180;BME280;3631;42.152;24.756;2023-08-20T04:16:50;84374.78;;;-144.30;57.96
7180;BME280;3631;42.152;24.756;2023-08-20T04:19:31;84335.03;;;-144.30;57.65
7180;BME280;3631;42.152;24.756;2023-08-20T04:22:16;84323.13;;;-144.30;57.45
7180;BME280;3631;42.152;24.756;2023-08-20T04:24:59;84311.19;;;-144.30;57.43
7180;BME280;3631;42.152;24.756;2023-08-20T04:27:30;84339.00;;;-144.30;57.21
7180;BME280;3631;42.152;24.756;2023-08-20T04:30:16;84331.06;;;-144.30;56.93
7180;BME280;3631;42.152;24.756;2023-08-20T04:32:52;84263.50;;;-144.30;56.58
7180;BME280;3631;42.152;24.756;2023-08-20T04:35:31;84263.50;;;-144.30;56.25
7180;BME280;3631;42.152;24.756;2023-08-20T04:38:14;84275.41;;;-144.30;56.06
7180;BME280;3631;42.152;24.756;2023-08-20T04:40:53;84245.59;;;-144.30;55.67
7180;BME280;3631;42.152;24.756;2023-08-20T04:43:28;84253.56;;;-144.30;55.30
7180;BME280;3631;42.152;24.756;2023-08-20T04:46:05;84243.63;;;-144.30;55.26
7180;BME280;3631;42.152;24.756;2023-08-20T04:48:38;84221.75;;;-144.30;55.17
7180;BME280;3631;42.152;24.756;2023-08-20T04:51:14;84168.09;;;-144.30;55.58
7180;BME280;3631;42.152;24.756;2023-08-20T04:53:48;84281.38;;;-144.30;55.71
7180;BME280;3631;42.152;24.756;2023-08-20T04:56:25;84211.81;;;-144.30;55.48
7180;BME280;3631;42.152;24.756;2023-08-20T04:59:09;84253.56;;;-144.30;55.39
7180;BME280;3631;42.152;24.756;2023-08-20T05:02:04;84253.56;;;-144.30;55.10
7180;BME280;3631;42.152;24.756;2023-08-20T05:04:47;84193.94;;;-144.30;55.09
7180;BME280;3631;42.152;24.756;2023-08-20T05:07:30;84187.97;;;-144.30;54.45
7180;BME280;3631;42.152;24.756;2023-08-20T05:10:02;84193.94;;;-144.30;54.23
7180;BME280;3631;42.152;24.756;2023-08-20T05:12:52;84191.94;;;-144.30;53.76
7180;BME280;3631;42.152;24.756;2023-08-20T05:15:25;84184.00;;;-144.30;53.95
7180;BME280;3631;42.152;24.756;2023-08-20T05:17:56;84096.56;;;-144.30;53.51
7180;BME280;3631;42.152;24.756;2023-08-20T05:20:29;84138.28;;;-144.30;53.65
7180;BME280;3631;42.152;24.756;2023-08-20T05:23:01;84100.53;;;-144.30;53.40
7180;BME280;3631;42.152;24.756;2023-08-20T05:25:38;84114.44;;;-144.30;52.98
7180;BME280;3631;42.152;24.756;2023-08-20T05:28:08;84036.94;;;-144.30;52.61
7180;BME280;3631;42.152;24.756;2023-08-20T05:30:41;84076.69;;;-144.30;52.37
7180;BME280;3631;42.152;24.756;2023-08-20T05:33:17;84060.78;;;-144.30;52.44
7180;BME280;3631;42.152;24.756;2023-08-20T05:36:04;84021.06;;;-144.30;52.33
7180;BME280;3631;42.152;24.756;2023-08-20T05:38:46;84048.88;;;-144.30;52.11
7180;BME280;3631;42.152;24.756;2023-08-20T05:41:16;83969.38;;;-144.30;52.00
7180;BME280;3631;42.152;24.756;2023-08-20T05:43:43;84040.91;;;-144.30;52.31
7180;BME280;3631;42.152;24.756;2023-08-20T05:46:11;84021.06;;;-144.30;52.54
7180;BME280;3631;42.152;24.756;2023-08-20T05:48:38;84007.16;;;-144.30;52.38
7180;BME280;3631;42.152;24.756;2023-08-20T05:51:05;83995.22;;;-144.30;52.25
7180;BME280;3631;42.152;24.756;2023-08-20T05:53:33;83937.59;;;-144.30;51.68
7180;BME280;3631;42.152;24.756;2023-08-20T05:56:00;83883.94;;;-144.30;51.45
7180;BME280;3631;42.152;24.756;2023-08-20T05:58:29;83881.97;;;-144.30;51.05
7180;BME280;3631;42.152;24.756;2023-08-20T06:00:56;83770.69;;;-144.30;49.43
7180;BME280;3631;42.152;24.756;2023-08-20T06:03:26;83581.91;;;-144.30;47.19
7180;BME280;3631;42.152;24.756;2023-08-20T06:05:53;83405.09;;;-144.30;44.93
7180;BME280;3631;42.152;24.756;2023-08-20T06:08:23;83295.81;;;-144.30;43.41
7180;BME280;3631;42.152;24.756;2023-08-20T06:10:50;83150.78;;;-144.30;41.56
7180;BME280;3631;42.152;24.756;2023-08-20T06:13:20;83130.94;;;-144.30;40.76
7180;BME280;3631;42.152;24.756;2023-08-20T06:15:49;83128.94;;;-144.30;41.06
7180;BME280;3631;42.152;24.756;2023-08-20T06:18:29;83270.00;;;-144.30;42.00
7180;BME280;3631;42.152;24.756;2023-08-20T06:20:57;83264.03;;;-144.30;42.77
7180;BME280;3631;42.152;24.756;2023-08-20T06:23:24;83309.72;;;-144.30;43.01
7180;BME280;3631;42.152;24.756;2023-08-20T06:25:52;83242.19;;;-144.30;42.54
7180;BME280;3631;42.152;24.756;2023-08-20T06:28:19;83162.72;;;-144.30;41.76
7180;BME280;3631;42.152;24.756;2023-08-20T06:31:22;82940.22;;;-144.30;40.67
7180;BME280;3631;42.152;24.756;2023-08-20T06:34:11;82801.16;;;-144.30;38.92
7180;BME280;3631;42.152;24.756;2023-08-20T06:36:48;82678.00;;;-144.30;38.53
7180;BME280;3631;42.152;24.756;2023-08-20T06:39:38;82668.06;;;-144.30;37.81
7180;BME280;3631;42.152;24.756;2023-08-20T06:42:23;82656.16;;;-144.30;37.54
7180;BME280;3631;42.152;24.756;2023-08-20T06:45:05;82604.50;;;-144.30;37.44
7180;BME280;3631;42.152;24.756;2023-08-20T06:47:48;82616.44;;;-144.30;37.42
7180;BME280;3631;42.152;24.756;2023-08-20T06:53:21;82590.59;;;-144.30;37.51
7180;BME280;3631;42.152;24.756;2023-08-20T06:56:07;82632.31;;;-144.30;37.46
7180;BME280;3631;42.152;24.756;2023-08-20T06:59:04;82515.13;;;-144.30;37.50
7180;BME280;3631;42.152;24.756;2023-08-20T07:01:51;82471.44;;;-144.30;36.70
7180;BME280;3631;42.152;24.756;2023-08-20T07:05:03;82308.56;;;-144.30;36.04
7180;BME280;3631;42.152;24.756;2023-08-20T07:07:42;82320.47;;;-144.30;36.13
7180;BME280;3631;42.152;24.756;2023-08-20T07:10:38;82336.38;;;-144.30;35.64
7180;BME280;3631;42.152;24.756;2023-08-20T07:17:02;82423.75;;;-144.30;36.36
7180;BME280;3631;42.152;24.756;2023-08-20T07:20:11;82245.00;;;-144.30;35.55
7180;BME280;3631;42.152;24.756;2023-08-20T07:23:07;82000.72;;;-144.30;33.92
7180;BME280;3631;42.152;24.756;2023-08-20T07:26:16;81808.09;;;-144.30;33.05
7180;BME280;3631;42.152;24.756;2023-08-20T07:29:11;81617.44;;;-144.30;32.21
7180;BME280;3631;42.152;24.756;2023-08-20T07:32:11;81490.34;;;-144.30;31.64
7180;BME280;3631;42.152;24.756;2023-08-20T07:38:30;80825.22;;;-144.30;28.91
7180;BME280;3631;42.152;24.756;2023-08-20T07:47:51;80481.78;;;-144.30;27.73
7180;BME280;3631;42.152;24.756;2023-08-20T07:54:15;80521.47;;;-144.30;27.67
7180;BME280;3631;42.152;24.756;2023-08-20T07:57:15;80223.72;;;-144.30;27.12
7180;BME280;3631;42.152;24.756;2023-08-20T08:00:18;80239.59;;;-144.30;27.12
7180;BME280;3631;42.152;24.756;2023-08-20T08:03:03;80108.59;;;-144.30;26.52
7180;BME280;3631;42.152;24.756;2023-08-20T08:05:51;80203.88;;;-144.30;26.62
7180;BME280;3631;42.152;24.756;2023-08-20T08:09:04;80406.34;;;-144.30;27.23
7180;BME280;3631;42.152;24.756;2023-08-20T08:12:07;80438.09;;;-144.30;27.04
7180;BME280;3631;42.152;24.756;2023-08-20T08:15:23;80344.81;;;-144.30;26.82
7180;BME280;3631;42.152;24.756;2023-08-20T08:18:45;80189.97;;;-144.30;26.46
7180;BME280;3631;42.152;24.756;2023-08-20T08:24:57;80090.72;;;-144.30;25.95
7180;BME280;3631;42.152;24.756;2023-08-20T08:27:52;79953.78;;;-144.30;25.46
7180;BME280;3631;42.152;24.756;2023-08-20T08:30:36;80267.38;;;-144.30;26.03
7180;BME280;3631;42.152;24.756;2023-08-20T08:33:24;80666.41;;;-144.30;26.79
7180;BME280;3631;42.152;24.756;2023-08-20T08:36:26;80674.34;;;-144.30;26.83
7180;BME280;3631;42.152;24.756;2023-08-20T08:39:22;80632.66;;;-144.30;26.47
7180;BME280;3631;42.152;24.756;2023-08-20T08:45:50;80485.75;;;-144.30;25.91
7180;BME280;3631;42.152;24.756;2023-08-20T08:48:55;80509.56;;;-144.30;26.12
7180;BME280;3631;42.152;24.756;2023-08-20T08:52:09;80394.44;;;-144.30;25.95
7180;BME280;3631;42.152;24.756;2023-08-20T08:55:19;80448.03;;;-144.30;25.85
7180;BME280;3631;42.152;24.756;2023-08-20T08:58:10;80521.47;;;-144.30;26.19
7180;BME280;3631;42.152;24.756;2023-08-20T09:01:36;80652.50;;;-144.30;26.38
7180;BME280;3631;42.152;24.756;2023-08-20T09:04:29;80751.75;;;-144.30;26.60
7180;BME280;3631;42.152;24.756;2023-08-20T09:07:35;80557.22;;;-144.30;26.53
7180;BME280;3631;42.152;24.756;2023-08-20T09:10:43;80950.28;;;-144.30;26.70
7180;BME280;3631;42.152;24.756;2023-08-20T09:13:57;81025.72;;;-144.30;27.16
7180;BME280;3631;42.152;24.756;2023-08-20T09:17:12;81017.78;;;-144.30;26.95
7180;BME280;3631;42.152;24.756;2023-08-20T09:20:44;80787.50;;;-144.30;26.72
7180;BME280;3631;42.152;24.756;2023-08-20T09:23:37;80525.44;;;-144.30;26.13
7180;BME280;3631;42.152;24.756;2023-08-20T09:26:46;80509.56;;;-144.30;26.07
7180;BME280;3631;42.152;24.756;2023-08-20T09:29:51;80616.75;;;-144.30;26.31
7180;BME280;3631;42.152;24.756;2023-08-20T09:33:13;80594.94;;;-144.30;26.07
7180;BME280;3631;42.152;24.756;2023-08-20T09:36:12;80519.50;;;-144.30;25.91
7180;BME280;3631;42.152;24.756;2023-08-20T09:39:06;80223.72;;;-144.30;25.50
7180;BME280;3631;42.152;24.756;2023-08-20T09:41:53;79854.53;;;-144.30;24.76
7180;BME280;3631;42.152;24.756;2023-08-20T09:44:46;79538.97;;;-144.30;24.33
7180;BME280;3631;42.152;24.756;2023-08-20T09:47:17;79495.31;;;-144.30;24.11
7180;BME280;3631;42.152;24.756;2023-08-20T09:49:55;79409.97;;;-144.30;24.03
7180;BME280;3631;42.152;24.756;2023-08-20T09:52:35;79564.78;;;-144.30;24.15
7180;BME280;3631;42.152;24.756;2023-08-20T09:55:22;79640.19;;;-144.30;24.09
7180;BME280;3631;42.152;24.756;2023-08-20T09:58:04;79840.66;;;-144.30;23.92
7180;BME280;3631;42.152;24.756;2023-08-20T10:00:42;79854.53;;;-144.30;23.93
7180;BME280;3631;42.152;24.756;2023-08-20T10:03:19;79798.97;;;-144.30;23.98
7180;BME280;3631;42.152;24.756;2023-08-20T10:05:51;79933.94;;;-144.30;24.40
7180;BME280;3631;42.152;24.756;2023-08-20T10:08:20;79795.00;;;-144.30;24.26
7180;BME280;3631;42.152;24.756;2023-08-20T10:10:56;79612.41;;;-144.30;23.89
7180;BME280;3631;42.152;24.756;2023-08-20T10:13:33;79354.41;;;-144.30;23.84
7180;BME280;3631;42.152;24.756;2023-08-20T10:16:04;79425.88;;;-144.30;23.91
7180;BME280;3631;42.152;24.756;2023-08-20T10:18:37;79576.69;;;-144.30;23.77
7180;BME280;3631;42.152;24.756;2023-08-20T10:21:25;79703.69;;;-144.30;23.84
7180;BME280;3631;42.152;24.756;2023-08-20T10:24:04;80033.16;;;-144.30;24.28
7180;BME280;3631;42.152;24.756;2023-08-20T10:26:47;80231.66;;;-144.30;24.71
7180;BME280;3631;42.152;24.756;2023-08-20T10:29:46;80686.25;;;-144.30;25.46
7180;BME280;3631;42.152;24.756;2023-08-20T10:32:15;80974.13;;;-144.30;26.31
7180;BME280;3631;42.152;24.756;2023-08-20T10:35:00;81198.47;;;-144.30;26.60
7180;BME280;3631;42.152;24.756;2023-08-20T10:40:52;81571.78;;;-144.30;27.90
7180;BME280;3631;42.152;24.756;2023-08-20T10:43:27;81688.94;;;-144.30;28.29
7180;BME280;3631;42.152;24.756;2023-08-20T10:46:16;81794.19;;;-144.30;28.56
7180;BME280;3631;42.152;24.756;2023-08-20T10:48:50;81770.34;;;-144.30;28.76
7180;BME280;3631;42.152;24.756;2023-08-20T10:51:28;81839.84;;;-144.30;28.95
7180;BME280;3631;42.152;24.756;2023-08-20T10:54:06;81891.50;;;-144.30;29.01
7180;BME280;3631;42.152;24.756;2023-08-20T10:56:43;81746.53;;;-144.30;29.15
7180;BME280;3631;42.152;24.756;2023-08-20T10:59:14;81827.94;;;-144.30;28.94
7180;BME280;3631;42.152;24.756;2023-08-20T11:01:43;81843.81;;;-144.30;28.83
7180;BME280;3631;42.152;24.756;2023-08-20T11:04:16;81818.00;;;-144.30;28.96
7180;BME280;3631;42.152;24.756;2023-08-20T11:06:45;81823.97;;;-144.30;29.21
7180;BME280;3631;42.152;24.756;2023-08-20T11:09:13;81792.19;;;-144.30;29.30
7180;BME280;3631;42.152;24.756;2023-08-20T11:11:49;81768.38;;;-144.30;29.26
7180;BME280;3631;42.152;24.756;2023-08-20T11:14:23;81829.94;;;-144.30;29.09
7180;BME280;3631;42.152;24.756;2023-08-20T11:16:58;81794.19;;;-144.30;29.12
7180;BME280;3631;42.152;24.756;2023-08-20T11:19:31;81825.94;;;-144.30;28.82
7180;BME280;3631;42.152;24.756;2023-08-20T11:22:11;81849.78;;;-144.30;28.97
7180;BME280;3631;42.152;24.756;2023-08-20T11:24:50;81865.66;;;-144.30;29.13
7180;BME280;3631;42.152;24.756;2023-08-20T11:27:36;81883.53;;;-144.30;29.04
7180;BME280;3631;42.152;24.756;2023-08-20T11:30:15;81927.22;;;-144.30;29.14
7180;BME280;3631;42.152;24.756;2023-08-20T11:32:51;81859.72;;;-144.30;29.29
7180;BME280;3631;42.152;24.756;2023-08-20T11:35:26;81897.44;;;-144.30;29.37
7180;BME280;3631;42.152;24.756;2023-08-20T11:38:03;81893.47;;;-144.30;29.06
7180;BME280;3631;42.152;24.756;2023-08-20T11:40:38;81877.59;;;-144.30;29.03
7180;BME280;3631;42.152;24.756;2023-08-20T11:43:34;81883.53;;;-144.30;28.96
7180;BME280;3631;42.152;24.756;2023-08-20T11:46:18;81820.00;;;-144.30;29.29
7180;BME280;3631;42.152;24.756;2023-08-20T11:49:07;81788.22;;;-144.30;29.19
7180;BME280;3631;42.152;24.756;2023-08-20T11:52:01;81839.84;;;-144.30;29.22
7180;BME280;3631;42.152;24.756;2023-08-20T11:54:37;81796.16;;;-144.30;29.45
7180;BME280;3631;42.152;24.756;2023-08-20T11:57:11;81831.91;;;-144.30;28.97
7180;BME280;3631;42.152;24.756;2023-08-20T11:59:52;81895.47;;;-144.30;29.24
7180;BME280;3631;42.152;24.756;2023-08-20T12:02:52;81939.16;;;-144.30;29.25
7180;BME280;3631;42.152;24.756;2023-08-20T12:05:30;81931.22;;;-144.30;29.34
7180;BME280;3631;42.152;24.756;2023-08-20T12:08:07;81966.94;;;-144.30;29.35
7180;BME280;3631;42.152;24.756;2023-08-20T12:10:55;81939.16;;;-144.30;29.67
7180;BME280;3631;42.152;24.756;2023-08-20T12:13:33;81955.03;;;-144.30;29.41
7180;BME280;3631;42.152;24.756;2023-08-20T12:16:08;81990.78;;;-144.30;29.38
7180;BME280;3631;42.152;24.756;2023-08-20T12:18:47;81962.97;;;-144.30;29.55
7180;BME280;3631;42.152;24.756;2023-08-20T12:21:21;82016.59;;;-144.30;29.72
7180;BME280;3631;42.152;24.756;2023-08-20T12:24:14;82026.53;;;-144.30;29.89
7180;BME280;3631;42.152;24.756;2023-08-20T12:26:55;81996.75;;;-144.30;29.72
7180;BME280;3631;42.152;24.756;2023-08-20T12:29:28;81994.75;;;-144.30;29.88
7180;BME280;3631;42.152;24.756;2023-08-20T12:32:07;82038.44;;;-144.30;29.60
7180;BME280;3631;42.152;24.756;2023-08-20T12:34:37;82008.66;;;-144.30;29.62
7180;BME280;3631;42.152;24.756;2023-08-20T12:37:09;81970.94;;;-144.30;29.63
7180;BME280;3631;42.152;24.756;2023-08-20T12:39:46;82012.63;;;-144.30;29.71
7180;BME280;3631;42.152;24.756;2023-08-20T12:42:20;82058.31;;;-144.30;29.87
7180;BME280;3631;42.152;24.756;2023-08-20T12:44:50;82066.25;;;-144.30;30.45
7180;BME280;3631;42.152;24.756;2023-08-20T12:47:24;82092.06;;;-144.30;30.36
7180;BME280;3631;42.152;24.756;2023-08-20T12:50:05;82096.03;;;-144.30;30.45
7180;BME280;3631;42.152;24.756;2023-08-20T12:53:07;82094.06;;;-144.30;30.53
7180;BME280;3631;42.152;24.756;2023-08-20T12:55:54;82070.22;;;-144.30;30.35
7180;BME280;3631;42.152;24.756;2023-08-20T12:58:25;82068.25;;;-144.30;30.05
7180;BME280;3631;42.152;24.756;2023-08-20T13:00:57;82042.41;;;-144.30;30.23
7180;BME280;3631;42.152;24.756;2023-08-20T13:03:28;82032.50;;;-144.30;29.91
7180;BME280;3631;42.152;24.756;2023-08-20T13:06:09;82082.13;;;-144.30;30.10
7180;BME280;3631;42.152;24.756;2023-08-20T13:08:56;82098.03;;;-144.30;30.35
7180;BME280;3631;42.152;24.756;2023-08-20T13:11:44;82090.09;;;-144.30;30.14
7180;BME280;3631;42.152;24.756;2023-08-20T13:14:29;82080.16;;;-144.30;30.21
7180;BME280;3631;42.152;24.756;2023-08-20T13:17:17;82096.03;;;-144.30;30.29
7180;BME280;3631;42.152;24.756;2023-08-20T13:20:00;82054.34;;;-144.30;30.16
7180;BME280;3631;42.152;24.756;2023-08-20T13:22:52;82111.94;;;-144.30;30.36
7180;BME280;3631;42.152;24.756;2023-08-20T13:25:44;82100.00;;;-144.30;30.43
7180;BME280;3631;42.152;24.756;2023-08-20T13:28:30;82084.13;;;-144.30;30.41
7180;BME280;3631;42.152;24.756;2023-08-20T13:31:04;82058.31;;;-144.30;30.11
7180;BME280;3631;42.152;24.756;2023-08-20T13:33:52;82141.72;;;-144.30;30.29
7180;BME280;3631;42.152;24.756;2023-08-20T13:36:41;82149.66;;;-144.30;30.37
7180;BME280;3631;42.152;24.756;2023-08-20T13:39:14;82137.75;;;-144.30;30.86
7180;BME280;3631;42.152;24.756;2023-08-20T13:41:51;82098.03;;;-144.30;30.31
7180;BME280;3631;42.152;24.756;2023-08-20T13:44:41;82129.81;;;-144.30;30.36
7180;BME280;3631;42.152;24.756;2023-08-20T13:47:37;82054.34;;;-144.30;30.28
7180;BME280;3631;42.152;24.756;2023-08-20T13:50:30;82098.03;;;-144.30;30.23
7180;BME280;3631;42.152;24.756;2023-08-20T13:53:42;82102.00;;;-144.30;29.94
7180;BME280;3631;42.152;24.756;2023-08-20T13:56:39;82606.50;;;-144.30;30.16
7180;BME280;3631;42.152;24.756;2023-08-20T13:59:28;82105.97;;;-144.30;30.25
7180;BME280;3631;42.152;24.756;2023-08-20T14:02:16;82078.16;;;-144.30;29.97
7180;BME280;3631;42.152;24.756;2023-08-20T14:05:06;82062.28;;;-144.30;29.92
7180;BME280;3631;42.152;24.756;2023-08-20T14:07:55;82090.09;;;-144.30;29.92
7180;BME280;3631;42.152;24.756;2023-08-20T14:14:25;82117.88;;;-144.30;30.14
7180;BME280;3631;42.152;24.756;2023-08-20T14:17:29;82145.69;;;-144.30;30.17
7180;BME280;3631;42.152;24.756;2023-08-20T14:20:46;82082.13;;;-144.30;30.41
7180;BME280;3631;42.152;24.756;2023-08-20T14:23:40;82129.81;;;-144.30;30.06
7180;BME280;3631;42.152;24.756;2023-08-20T14:26:46;82149.66;;;-144.30;30.23
7180;BME280;3631;42.152;24.756;2023-08-20T14:29:53;82086.13;;;-144.30;30.04
7180;BME280;3631;42.152;24.756;2023-08-20T14:32:56;82104.00;;;-144.30;30.31
7180;BME280;3631;42.152;24.756;2023-08-20T14:35:57;82145.69;;;-144.30;30.19
7180;BME280;3631;42.152;24.756;2023-08-20T14:38:56;82102.00;;;-144.30;30.43
7180;BME280;3631;42.152;24.756;2023-08-20T14:42:02;82070.22;;;-144.30;30.28
7180;BME280;3631;42.152;24.756;2023-08-20T14:45:13;82102.00;;;-144.30;30.34
7180;BME280;3631;42.152;24.756;2023-08-20T14:48:10;82133.78;;;-144.30;30.37
7180;BME280;3631;42.152;24.756;2023-08-20T14:51:10;82092.06;;;-144.30;30.26
7180;BME280;3631;42.152;24.756;2023-08-20T14:54:01;82074.19;;;-144.30;30.40
7180;BME280;3631;42.152;24.756;2023-08-20T14:56:57;82064.28;;;-144.30;30.50
7180;BME280;3631;42.152;24.756;2023-08-20T15:03:11;82417.78;;;-144.30;30.45
7180;BME280;3631;42.152;24.756;2023-08-20T15:06:03;82125.84;;;-144.30;30.44
7180;BME280;3631;42.152;24.756;2023-08-20T15:08:58;82104.00;;;-144.30;30.31
7180;BME280;3631;42.152;24.756;2023-08-20T15:11:57;82076.19;;;-144.30;30.04
7180;BME280;3631;42.152;24.756;2023-08-20T15:14:52;82125.84;;;-144.30;30.13
7180;BME280;3631;42.152;24.756;2023-08-20T15:21:22;82102.00;;;-144.30;30.46
7180;BME280;3631;42.152;24.756;2023-08-20T15:24:27;82133.78;;;-144.30;30.64
7180;BME280;3631;42.152;24.756;2023-08-20T15:27:40;82082.13;;;-144.30;30.67
7180;BME280;3631;42.152;24.756;2023-08-20T15:30:41;82151.66;;;-144.30;30.91
7180;BME280;3631;42.152;24.756;2023-08-20T15:33:56;82117.88;;;-144.30;30.96
7180;BME280;3631;42.152;24.756;2023-08-20T15:37:20;82181.44;;;-144.30;30.69
7180;BME280;3631;42.152;24.756;2023-08-20T15:40:42;82171.50;;;-144.30;30.87
7180;BME280;3631;42.152;24.756;2023-08-20T15:43:54;82161.59;;;-144.30;31.59